Tropical Cyclones
[Index]
Season 2020-2021 Tropical Cyclone 202114 Track Map
Season 2020-2021 Summaries (Operational Data): [AU] [SIO] [SPAC] [SH]
<<- Previous TC | 2020-2021 Season | Next TC ->>

click for intensity scale information  Lat/long Grid: Show Hide

 Date Labels: Show Hide

Operational Tropical Cyclone Data

Name: 202114
Number: 2114

15 Jan 2021 18:00 UTC to 23 Jan 2021 12:00 UTC

    date/time    lat    long     hPa   cat  kts
2021-01-15 18   11.0   137.0    1001                     
2021-01-16 06   12.0   139.0    1003                     
2021-01-16 18   11.0   137.0    1002                     
2021-01-17 06   11.0   137.0    1002                     
2021-01-17 18   11.0   137.0    1002                     
2021-01-18 06   11.0   130.0    1002                     
2021-01-18 12   10.8   128.6    1010         15          
2021-01-18 18   10.9   128.2    1010         15          
2021-01-19 00   11.0   127.5    1004         15          
2021-01-19 06   10.8   126.3    1004         15          
2021-01-19 12   11.2   125.4    1004         20          
2021-01-19 18   11.8   124.7    1004         20          
2021-01-20 00   12.2   123.8    1004         20          
2021-01-20 06   13.2   122.7    1004         20          
2021-01-20 12   13.7   121.4    1002         25          
2021-01-20 18   14.5   120.7    1002         25          
2021-01-21 00   15.2   120.4    1001         25          
2021-01-21 06   16.7   119.9    1000         25          
2021-01-21 12   17.9   119.9    1000         25          
2021-01-21 18   18.8   120.3     998    1    35          
2021-01-22 00   19.3   120.5     995    1    40          
2021-01-22 06   19.6   120.7     997    1    35          
2021-01-22 12   19.9   121.1     997         30          
2021-01-22 18   21.2   122.3    1001         25          
2021-01-23 00   22.5   123.6    1000         25          
2021-01-23 06   23.4   124.4     999         25          
2021-01-23 12   24.2   125.2    1004         20          
Winds were reported as (or converted to) 10-min average.

Tropical cyclone tracks developed by Michael Bath using operational warnings and advisories and Google Maps.


Document: tropical_cyclone_202114.htm
Updated: 7 May 2021
[Australian Severe Weather index] [Copyright Notice] [Email Contacts] [Search This Site] [Privacy Policy]


Main Index Home Page Stock Weather Photos Extreme Storms Discussion Storm News and Storm Chasing Reports Tropical Cyclones / Hurricanes / Typhoons Weather Data and Links Wild Fires / Bushfires Weather Observation Techniques Weather Picture Catalogue Tornado Pictures and Reports Stock Video Footage and DVDs for sale